logo
Search for airport 
image banner adimage banner adimage banner ad
image banner ad

HKIO - Ilolo

Located in , Kenya

ICAO - , IATA -

Data provided by Airmate  

General information

Coordinates: N4°26'49" E36°14'3"
Elevation is 1257 feet MSL.
 
View others Airports in Eastern Province

Operational data

Special qualification required
Current time UTC:
Current local time:
Weather at : - ( 0 km )
METAR: KHHR 230507Z AUTO VRB03KT 10SM OVC017 16/13 A2994 RMK AO2 T01560128 $
View NOTAMs / SUP AIP / TFR affecting this airport [VIEW]
Communications frequencies: [VIEW]

Runways:

RWY identifierQFULength (ft)Width (ft)SurfaceLDA (ft)
0800UNK
2600UNK

Airport contact information

Address: Kenya

Satellite view of HKIO